Time;durP1;ratioP1;P1;durP2;ratioP2;P2;SDS_P1;SDS_P2;PMS_P1;PMS_P2;Temp;Humidity;BMP_temperature;BMP_pressure;BME280_temperature;BME280_humidity;BME280_pressure;Samples;Min_cycle;Max_cycle;Signal;HPM_P1;HPM_P2
2022/11/17 00:00:23;;;;;;;2.05;0.40;;;9.90;99.90;;;;;;4852368;29;20068;-90
2022/11/17 00:02:49;;;;;;;3.42;0.40;;;9.90;99.90;;;;;;4866131;29;20029;-91
2022/11/17 00:05:16;;;;;;;4.60;0.40;;;9.90;99.90;;;;;;4867325;29;20522;-88
2022/11/17 00:07:44;;;;;;;3.08;0.40;;;9.90;99.90;;;;;;4861880;29;20065;-90
2022/11/17 00:10:10;;;;;;;2.53;0.40;;;9.90;99.90;;;;;;4842923;29;20033;-91
2022/11/17 00:15:20;;;;;;;2.05;0.30;;;9.90;99.90;;;;;;4848690;29;20124;-96
2022/11/17 00:17:47;;;;;;;2.05;0.30;;;9.90;99.90;;;;;;4848377;29;20539;-86
2022/11/17 00:22:57;;;;;;;2.00;0.30;;;9.90;99.90;;;;;;4854851;29;20037;-86
2022/11/17 00:25:23;;;;;;;2.13;0.30;;;9.90;99.90;;;;;;4855932;29;20042;-86
2022/11/17 00:27:49;;;;;;;2.88;0.35;;;9.90;99.90;;;;;;4853651;29;20052;-94
2022/11/17 00:34:03;;;;;;;2.45;0.40;;;9.90;99.90;;;;;;4855223;29;20052;-90
2022/11/17 00:35:52;;;;;;;3.53;0.40;;;9.90;99.90;;;;;;4856817;29;20052;-87
2022/11/17 00:38:18;;;;;;;3.03;0.30;;;9.90;99.90;;;;;;4854705;29;20423;-90
2022/11/17 00:40:44;;;;;;;1.80;0.35;;;9.90;99.90;;;;;;4864623;29;20120;-81
2022/11/17 00:43:09;;;;;;;2.55;0.40;;;9.90;99.90;;;;;;4856712;29;20057;-90
2022/11/17 00:45:35;;;;;;;2.97;0.40;;;9.90;99.90;;;;;;4840589;29;20033;-83
2022/11/17 00:48:01;;;;;;;2.50;0.40;;;9.90;99.90;;;;;;4855796;29;20482;-90
2022/11/17 00:50:26;;;;;;;2.35;0.30;;;9.90;99.90;;;;;;4853041;29;20034;-87
2022/11/17 00:52:52;;;;;;;1.52;0.30;;;9.90;99.90;;;;;;4868945;29;20030;-91
2022/11/17 00:55:18;;;;;;;2.25;0.38;;;9.90;99.90;;;;;;4852724;29;20514;-90
2022/11/17 00:57:43;;;;;;;2.85;0.35;;;9.90;99.90;;;;;;4841955;29;20066;-90
2022/11/17 01:00:09;;;;;;;4.15;0.32;;;9.90;99.90;;;;;;4841665;29;20033;-84
2022/11/17 01:02:36;;;;;;;1.23;0.22;;;9.90;99.90;;;;;;4855807;29;20461;-91
2022/11/17 01:05:02;;;;;;;2.45;0.40;;;9.90;99.90;;;;;;4853386;29;20065;-90
2022/11/17 01:07:27;;;;;;;2.85;0.60;;;9.90;99.90;;;;;;4848658;29;20068;-91
2022/11/17 01:09:53;;;;;;;2.38;0.43;;;9.90;99.90;;;;;;4864340;29;20438;-90
2022/11/17 01:12:18;;;;;;;2.17;0.30;;;9.90;99.90;;;;;;4856139;29;20040;-88
2022/11/17 01:14:44;;;;;;;2.35;0.35;;;9.90;99.90;;;;;;4869434;29;20112;-91
2022/11/17 01:17:10;;;;;;;5.22;0.40;;;9.90;99.90;;;;;;4862858;29;20355;-85
2022/11/17 01:19:35;;;;;;;1.73;0.30;;;10.00;99.90;;;;;;4854973;29;20074;-88
2022/11/17 01:22:01;;;;;;;2.92;0.30;;;10.00;99.90;;;;;;4862046;29;20109;-86
2022/11/17 01:24:27;;;;;;;2.88;0.40;;;9.90;99.90;;;;;;4857427;29;20049;-84
2022/11/17 01:26:52;;;;;;;0.95;0.30;;;10.00;99.90;;;;;;4851823;29;20510;-93
2022/11/17 01:29:18;;;;;;;1.88;0.57;;;10.00;99.90;;;;;;4853697;29;20531;-81
2022/11/17 01:31:48;;;;;;;5.80;0.60;;;10.00;99.90;;;;;;4840239;29;20037;-83
2022/11/17 01:34:13;;;;;;;3.97;0.40;;;10.00;99.90;;;;;;4851178;29;20076;-89
2022/11/17 01:39:26;;;;;;;2.97;0.35;;;10.00;99.90;;;;;;4856159;29;20124;-90
2022/11/17 01:41:53;;;;;;;3.88;0.57;;;10.00;99.90;;;;;;4863056;29;20558;-86
2022/11/17 01:44:42;;;;;;;1.85;0.52;;;10.00;99.90;;;;;;4853306;29;20407;-92
2022/11/17 01:47:34;;;;;;;2.97;0.30;;;9.90;99.90;;;;;;4867106;29;20041;-89
2022/11/17 01:50:09;;;;;;;2.10;0.30;;;9.90;99.90;;;;;;4851488;29;20045;-89
2022/11/17 01:52:37;;;;;;;2.65;0.30;;;10.00;99.90;;;;;;4862089;29;20038;-85
2022/11/17 01:55:04;;;;;;;1.30;0.28;;;9.90;99.90;;;;;;4852712;29;20033;-87
2022/11/17 01:57:36;;;;;;;1.30;0.30;;;10.00;99.90;;;;;;4852005;29;20116;-85
2022/11/17 02:00:06;;;;;;;1.20;0.20;;;10.00;99.90;;;;;;4854374;29;20018;-81
2022/11/17 02:02:33;;;;;;;;;;;10.00;99.90;;;;;;4852208;29;20060;-87
2022/11/17 02:05:10;;;;;;;1.95;0.20;;;10.00;99.90;;;;;;4868377;29;19912;-77
2022/11/17 02:07:39;;;;;;;2.70;0.20;;;10.00;99.90;;;;;;4853470;29;20101;-79
2022/11/17 02:10:05;;;;;;;1.73;0.20;;;10.00;99.90;;;;;;4853129;29;20033;-89
2022/11/17 02:12:34;;;;;;;3.22;0.30;;;10.00;99.90;;;;;;4854669;29;20089;-88
2022/11/17 02:15:01;;;;;;;1.95;0.20;;;10.00;99.90;;;;;;4839412;29;20037;-89
2022/11/17 02:17:39;;;;;;;1.95;0.20;;;10.00;99.90;;;;;;4867465;29;20029;-86
2022/11/17 02:20:10;;;;;;;1.65;0.22;;;10.00;99.90;;;;;;4854365;29;20497;-90
2022/11/17 02:23:18;;;;;;;2.45;0.30;;;10.10;99.90;;;;;;4866960;29;20494;-86
2022/11/17 02:26:05;;;;;;;1.65;0.20;;;10.10;99.90;;;;;;4858458;29;20050;-93
2022/11/17 02:28:41;;;;;;;1.85;0.20;;;10.10;99.90;;;;;;4851157;29;20085;-86
2022/11/17 02:31:23;;;;;;;1.20;0.20;;;10.20;99.90;;;;;;4866567;29;20122;-83
2022/11/17 02:33:56;;;;;;;0.93;0.20;;;10.10;99.90;;;;;;4868113;29;20046;-92
2022/11/17 02:36:48;;;;;;;1.13;0.15;;;10.10;99.90;;;;;;4853615;29;20026;-89
2022/11/17 02:39:55;;;;;;;0.73;0.10;;;10.10;99.90;;;;;;4843157;29;20034;-91
2022/11/17 02:45:34;;;;;;;1.45;0.20;;;10.10;99.90;;;;;;4833691;29;20141;-89
2022/11/17 02:48:06;;;;;;;1.30;0.20;;;10.20;99.90;;;;;;4834023;29;20078;-90
2022/11/17 02:50:34;;;;;;;1.77;0.20;;;10.20;99.90;;;;;;4834616;29;20033;-89
2022/11/17 02:53:00;;;;;;;0.93;0.20;;;10.20;99.90;;;;;;4816958;29;20566;-89
2022/11/17 02:55:26;;;;;;;1.10;0.20;;;10.20;99.90;;;;;;4834294;29;20112;-83
2022/11/17 02:57:52;;;;;;;1.38;0.15;;;10.20;99.90;;;;;;4835356;29;20041;-90
2022/11/17 03:00:19;;;;;;;1.80;0.20;;;10.20;99.90;;;;;;4820918;29;20030;-88
2022/11/17 03:03:19;;;;;;;2.78;0.20;;;10.20;99.90;;;;;;4825727;29;20041;-90
2022/11/17 03:05:56;;;;;;;2.38;0.20;;;10.20;99.90;;;;;;4832987;29;20058;-90
2022/11/17 03:08:31;;;;;;;1.55;0.20;;;10.20;99.90;;;;;;4821177;29;20040;-87
2022/11/17 03:11:01;;;;;;;1.60;0.20;;;10.20;99.90;;;;;;4835066;29;20106;-93
2022/11/17 03:13:42;;;;;;;0.80;0.20;;;10.30;99.90;;;;;;4830423;29;20209;-87
2022/11/17 03:16:08;;;;;;;0.70;0.20;;;10.30;99.90;;;;;;4834394;29;20042;-88
2022/11/17 03:18:36;;;;;;;1.98;0.20;;;10.20;99.90;;;;;;4847725;29;20090;-91
2022/11/17 03:21:15;;;;;;;1.63;0.20;;;10.30;99.90;;;;;;4851811;29;20041;-91
2022/11/17 03:23:47;;;;;;;1.90;0.20;;;10.30;99.90;;;;;;4855650;29;20112;-88
2022/11/17 03:26:17;;;;;;;1.30;0.20;;;10.30;99.90;;;;;;4851053;29;20343;-80
2022/11/17 03:28:45;;;;;;;1.90;0.30;;;10.30;99.90;;;;;;4833718;29;20030;-92
2022/11/17 03:31:13;;;;;;;0.90;0.20;;;10.30;99.90;;;;;;4851840;29;20034;-85
2022/11/17 03:33:42;;;;;;;1.98;0.20;;;10.30;99.90;;;;;;4853711;29;20128;-84
2022/11/17 03:36:15;;;;;;;1.70;0.22;;;10.30;99.90;;;;;;4844042;29;20037;-88
2022/11/17 03:38:50;;;;;;;0.65;0.30;;;10.40;99.90;;;;;;4853284;29;20486;-91
2022/11/17 03:41:17;;;;;;;1.17;0.20;;;10.40;99.90;;;;;;4848574;29;20030;-87
2022/11/17 03:43:47;;;;;;;1.48;0.20;;;10.40;99.90;;;;;;4852334;29;20050;-88
2022/11/17 03:46:17;;;;;;;0.80;0.20;;;10.40;99.90;;;;;;4849868;29;20041;-81
2022/11/17 03:48:52;;;;;;;1.65;0.20;;;10.40;99.90;;;;;;4866204;29;20038;-91
2022/11/17 03:51:22;;;;;;;1.63;0.30;;;10.40;99.90;;;;;;4853447;29;20611;-85
2022/11/17 03:53:48;;;;;;;1.95;0.30;;;10.40;99.90;;;;;;4852643;29;20093;-84
2022/11/17 03:56:38;;;;;;;1.80;0.40;;;10.40;99.90;;;;;;4855056;29;20422;-90
2022/11/17 03:59:19;;;;;;;2.58;0.40;;;10.40;99.90;;;;;;4868883;29;20048;-87
2022/11/17 04:01:45;;;;;;;3.50;0.20;;;10.40;99.90;;;;;;4855835;29;20037;-87
2022/11/17 04:04:19;;;;;;;1.45;0.30;;;10.40;99.90;;;;;;4843318;29;20041;-88
2022/11/17 04:06:45;;;;;;;1.65;0.20;;;10.40;99.90;;;;;;4867073;29;20430;-90
2022/11/17 04:09:11;;;;;;;1.08;0.30;;;10.30;99.90;;;;;;4856590;29;22050;-84
2022/11/17 04:17:05;;;;;;;1.42;0.30;;;10.30;99.90;;;;;;4855083;29;20026;-90
2022/11/17 04:19:30;;;;;;;0.80;0.20;;;10.30;99.90;;;;;;4856086;29;20569;-90
2022/11/17 04:21:56;;;;;;;1.40;0.10;;;10.20;99.90;;;;;;4858569;29;20586;-89
2022/11/17 04:24:22;;;;;;;1.50;0.20;;;10.20;99.90;;;;;;4856438;29;20038;-83
2022/11/17 04:29:33;;;;;;;1.10;0.20;;;10.20;99.90;;;;;;4858551;29;20090;-86
2022/11/17 04:31:58;;;;;;;1.80;0.30;;;10.20;99.90;;;;;;4851768;29;20054;-81
2022/11/17 04:34:24;;;;;;;1.42;0.20;;;10.30;99.90;;;;;;4853732;29;20116;-87
2022/11/17 04:36:50;;;;;;;0.52;0.20;;;10.20;99.90;;;;;;4855691;29;20112;-90
2022/11/17 04:39:17;;;;;;;1.13;0.20;;;10.20;99.90;;;;;;4871791;29;20033;-87
2022/11/17 04:42:03;;;;;;;0.93;0.30;;;10.20;99.90;;;;;;4855347;29;20108;-82
2022/11/17 04:44:30;;;;;;;1.42;0.20;;;10.20;99.90;;;;;;4854714;29;20435;-89
2022/11/17 04:46:57;;;;;;;0.85;0.20;;;10.20;99.90;;;;;;4854836;29;20046;-91
2022/11/17 04:49:24;;;;;;;0.93;0.20;;;10.20;99.90;;;;;;4854315;29;20169;-87
2022/11/17 04:51:51;;;;;;;1.52;0.30;;;10.20;99.90;;;;;;4842232;29;20048;-92
2022/11/17 04:54:20;;;;;;;0.80;0.20;;;10.20;99.90;;;;;;4868418;29;20093;-89
2022/11/17 04:56:47;;;;;;;2.17;0.20;;;10.20;99.90;;;;;;4853582;29;20065;-91
2022/11/17 04:59:13;;;;;;;1.48;0.30;;;10.20;99.90;;;;;;4833168;29;20081;-83
2022/11/17 05:01:38;;;;;;;0.98;0.20;;;10.20;99.90;;;;;;4838119;29;20030;-89
2022/11/17 05:04:13;;;;;;;1.00;0.20;;;10.10;99.90;;;;;;4852626;29;20029;-83
2022/11/17 05:06:41;;;;;;;1.08;0.20;;;10.10;99.90;;;;;;4855138;29;20049;-92
2022/11/17 05:09:10;;;;;;;1.35;0.20;;;10.20;99.90;;;;;;4844271;29;20034;-86
2022/11/17 05:14:21;;;;;;;2.15;0.20;;;10.20;99.90;;;;;;4859016;29;20037;-91
2022/11/17 05:17:08;;;;;;;1.00;0.20;;;10.10;99.90;;;;;;4857397;29;20626;-95
2022/11/17 05:19:43;;;;;;;0.73;0.20;;;10.20;99.90;;;;;;4858577;29;20041;-91
2022/11/17 05:24:55;;;;;;;0.82;0.20;;;10.20;99.90;;;;;;4857624;29;20037;-93
2022/11/17 05:27:21;;;;;;;0.68;0.20;;;10.20;99.90;;;;;;4859356;29;20038;-87
2022/11/17 05:29:47;;;;;;;1.30;0.25;;;10.20;99.90;;;;;;4857728;29;20611;-85
2022/11/17 05:32:13;;;;;;;1.83;0.43;;;10.20;99.90;;;;;;4849446;29;20057;-81
2022/11/17 05:34:38;;;;;;;1.90;0.30;;;10.20;99.90;;;;;;4860419;29;20494;-95
2022/11/17 05:37:05;;;;;;;1.70;0.20;;;10.20;99.90;;;;;;4857224;29;20494;-91
2022/11/17 05:39:30;;;;;;;1.15;0.20;;;10.20;99.90;;;;;;4870565;29;20487;-92
2022/11/17 05:41:56;;;;;;;1.85;0.30;;;10.20;99.90;;;;;;4857534;29;20057;-94
2022/11/17 05:44:22;;;;;;;0.93;0.20;;;10.20;99.90;;;;;;4861731;29;20038;-89
2022/11/17 05:46:47;;;;;;;1.65;0.30;;;10.20;99.90;;;;;;4855723;29;20042;-87
2022/11/17 05:49:13;;;;;;;0.47;0.10;;;10.20;99.90;;;;;;4875278;29;20029;-94
2022/11/17 05:51:39;;;;;;;1.08;0.20;;;10.20;99.90;;;;;;4857894;29;20040;-81
2022/11/17 05:54:04;;;;;;;1.40;0.20;;;10.20;99.90;;;;;;4854115;29;20033;-88
2022/11/17 05:56:40;;;;;;;0.80;0.20;;;10.20;99.90;;;;;;4843411;29;20029;-90
2022/11/17 05:59:08;;;;;;;1.63;0.20;;;10.20;99.90;;;;;;4856111;29;20033;-88
2022/11/17 06:01:38;;;;;;;1.50;0.35;;;10.10;99.90;;;;;;4855706;29;20493;-83
2022/11/17 06:04:06;;;;;;;1.25;0.20;;;10.20;99.90;;;;;;4864802;29;20030;-91
2022/11/17 06:06:34;;;;;;;1.55;0.20;;;10.10;99.90;;;;;;4845708;29;20599;-94
2022/11/17 06:09:00;;;;;;;1.83;0.38;;;10.20;99.90;;;;;;4860194;29;20033;-88
2022/11/17 06:11:25;;;;;;;1.25;0.20;;;10.20;99.90;;;;;;4871874;29;20065;-90
2022/11/17 06:13:51;;;;;;;1.25;0.20;;;10.20;99.90;;;;;;4869119;29;20037;-86
2022/11/17 06:16:22;;;;;;;1.65;0.40;;;10.10;99.90;;;;;;4868563;29;20044;-85
2022/11/17 06:18:58;;;;;;;0.93;0.20;;;10.10;99.90;;;;;;4868132;29;20033;-92
2022/11/17 06:21:24;;;;;;;1.15;0.20;;;10.10;99.90;;;;;;4853224;29;20038;-91
2022/11/17 06:23:50;;;;;;;1.17;0.20;;;10.20;99.90;;;;;;4868978;29;20034;-83
2022/11/17 06:26:16;;;;;;;1.13;0.30;;;10.20;99.90;;;;;;4839730;29;20033;-92
2022/11/17 06:28:44;;;;;;;1.17;0.20;;;10.20;99.90;;;;;;4852959;29;20029;-82
2022/11/17 06:31:10;;;;;;;1.75;0.20;;;10.20;99.90;;;;;;4854511;29;20030;-90
2022/11/17 06:33:37;;;;;;;2.13;0.20;;;10.20;99.90;;;;;;4853821;29;20064;-92
2022/11/17 06:36:05;;;;;;;1.45;0.28;;;10.20;99.90;;;;;;4860431;29;20093;-91
2022/11/17 06:38:33;;;;;;;1.48;0.30;;;10.20;99.90;;;;;;4862434;29;20041;-89
2022/11/17 06:40:58;;;;;;;1.63;0.30;;;10.20;99.90;;;;;;4853765;29;20080;-80
2022/11/17 06:43:24;;;;;;;1.00;0.20;;;10.20;99.90;;;;;;4852255;29;20110;-85
2022/11/17 06:45:50;;;;;;;1.35;0.30;;;10.20;99.90;;;;;;4851285;29;20462;-81
2022/11/17 06:48:17;;;;;;;1.88;0.10;;;10.20;99.90;;;;;;4855090;29;20077;-85
2022/11/17 06:50:43;;;;;;;1.00;0.20;;;10.20;99.90;;;;;;4855952;29;20223;-91
2022/11/17 06:53:11;;;;;;;2.05;0.20;;;10.20;99.90;;;;;;4846388;29;20101;-94
2022/11/17 06:55:37;;;;;;;1.38;0.38;;;10.20;99.90;;;;;;4852136;29;20025;-93
2022/11/17 06:58:05;;;;;;;1.88;0.20;;;10.20;99.90;;;;;;4854441;29;20492;-85
2022/11/17 07:00:32;;;;;;;2.03;0.60;;;10.20;99.90;;;;;;4852305;29;20029;-88
2022/11/17 07:02:59;;;;;;;2.20;0.20;;;10.30;99.90;;;;;;4853584;29;20033;-90
2022/11/17 07:05:27;;;;;;;1.45;0.10;;;10.30;99.90;;;;;;4866687;29;20081;-92
2022/11/17 07:07:57;;;;;;;2.13;0.20;;;10.30;99.90;;;;;;4853521;29;20065;-88
2022/11/17 07:10:23;;;;;;;2.30;0.20;;;10.30;99.90;;;;;;4832482;29;20550;-82
2022/11/17 07:12:49;;;;;;;1.95;0.30;;;10.30;99.90;;;;;;4814702;29;20103;-86
2022/11/17 07:15:14;;;;;;;2.97;0.20;;;10.30;99.90;;;;;;4841025;29;20566;-86
2022/11/17 07:17:40;;;;;;;1.20;0.10;;;10.30;99.90;;;;;;4832957;29;20029;-82
2022/11/17 07:20:06;;;;;;;1.90;0.10;;;10.30;99.90;;;;;;4835542;29;20102;-83
2022/11/17 07:22:32;;;;;;;2.75;0.38;;;10.30;99.90;;;;;;4856613;29;20033;-84
2022/11/17 07:24:57;;;;;;;2.80;0.10;;;10.30;99.90;;;;;;4842796;29;20594;-82
2022/11/17 07:27:23;;;;;;;1.73;0.10;;;10.30;99.90;;;;;;4855720;29;20409;-83
2022/11/17 07:29:49;;;;;;;1.33;0.15;;;10.30;99.90;;;;;;4856471;29;20052;-87
2022/11/17 07:32:14;;;;;;;1.15;0.20;;;10.30;99.90;;;;;;4848948;29;20910;-90
2022/11/17 07:34:40;;;;;;;1.45;0.10;;;10.30;99.90;;;;;;4842210;29;20443;-86
2022/11/17 07:37:06;;;;;;;1.25;0.10;;;10.30;99.90;;;;;;4839821;29;20034;-83
2022/11/17 07:39:32;;;;;;;1.55;0.28;;;10.30;99.90;;;;;;4849590;29;20907;-86
2022/11/17 07:41:57;;;;;;;0.77;0.10;;;10.30;99.90;;;;;;4855862;29;20049;-85
2022/11/17 07:44:23;;;;;;;1.10;0.10;;;10.30;99.90;;;;;;4825324;29;20038;-86
2022/11/17 07:46:49;;;;;;;2.33;0.20;;;10.30;99.90;;;;;;4857516;29;20702;-89
2022/11/17 07:49:15;;;;;;;0.93;0.10;;;10.30;99.90;;;;;;4859016;29;20458;-93
2022/11/17 07:51:40;;;;;;;2.13;0.10;;;10.30;99.90;;;;;;4860726;29;20041;-86
2022/11/17 07:54:06;;;;;;;2.00;0.20;;;10.40;99.90;;;;;;4849865;29;21408;-82
2022/11/17 07:56:33;;;;;;;1.98;0.10;;;10.40;99.90;;;;;;4835042;29;20037;-86
2022/11/17 07:58:58;;;;;;;2.45;0.10;;;10.40;99.90;;;;;;4849591;29;20097;-86
2022/11/17 08:01:26;;;;;;;1.40;0.10;;;10.40;99.90;;;;;;4854027;29;20438;-92
2022/11/17 08:03:52;;;;;;;0.93;0.17;;;10.40;99.90;;;;;;4863998;29;20395;-83
2022/11/17 08:06:18;;;;;;;1.08;0.10;;;10.40;99.90;;;;;;4865373;29;20048;-87
2022/11/17 08:08:44;;;;;;;1.77;0.20;;;10.40;99.90;;;;;;4852746;29;20029;-86
2022/11/17 08:11:11;;;;;;;1.23;0.10;;;10.40;99.90;;;;;;4865454;29;20044;-86
2022/11/17 08:13:38;;;;;;;1.60;0.15;;;10.40;99.90;;;;;;4848137;29;20105;-88
2022/11/17 08:16:05;;;;;;;2.38;0.30;;;10.40;99.90;;;;;;4851291;29;20029;-84
2022/11/17 08:18:31;;;;;;;4.22;0.20;;;10.40;99.90;;;;;;4851329;29;20066;-87
2022/11/17 08:21:01;;;;;;;2.35;0.20;;;10.30;99.90;;;;;;4864809;29;20148;-86
2022/11/17 08:23:27;;;;;;;0.90;0.10;;;10.40;99.90;;;;;;4832856;29;20149;-83
2022/11/17 08:25:52;;;;;;;2.90;0.15;;;10.40;99.90;;;;;;4850280;29;20128;-87
2022/11/17 08:28:18;;;;;;;1.83;0.10;;;10.50;99.90;;;;;;4851354;29;20213;-88
2022/11/17 08:30:43;;;;;;;1.75;0.10;;;10.50;99.90;;;;;;4866533;29;20471;-83
2022/11/17 08:33:09;;;;;;;2.70;0.20;;;10.50;99.90;;;;;;4863798;29;20034;-88
2022/11/17 08:35:35;;;;;;;2.90;0.10;;;10.50;99.90;;;;;;4864746;29;20037;-82
2022/11/17 08:38:00;;;;;;;2.70;0.55;;;10.50;99.90;;;;;;4854721;29;20106;-85
2022/11/17 08:40:26;;;;;;;0.90;0.10;;;10.50;99.90;;;;;;4854270;29;20075;-89
2022/11/17 08:42:53;;;;;;;2.03;0.20;;;10.50;99.90;;;;;;4868379;29;20094;-83
2022/11/17 08:45:19;;;;;;;2.30;0.10;;;10.50;99.90;;;;;;4853663;29;20033;-90
2022/11/17 08:47:44;;;;;;;0.70;0.10;;;10.50;99.90;;;;;;4867009;29;20085;-88
2022/11/17 08:50:10;;;;;;;1.08;0.10;;;10.40;99.90;;;;;;4862986;29;20533;-82
2022/11/17 08:52:36;;;;;;;1.33;0.10;;;10.40;99.90;;;;;;4853785;29;20025;-86
2022/11/17 08:55:04;;;;;;;1.60;0.10;;;10.40;99.90;;;;;;4850477;29;20482;-87
2022/11/17 08:57:31;;;;;;;0.95;0.08;;;10.40;99.90;;;;;;4853032;29;20037;-87
2022/11/17 08:59:57;;;;;;;2.30;0.00;;;10.40;99.90;;;;;;4866413;29;20081;-86
2022/11/17 09:02:23;;;;;;;1.00;0.10;;;10.30;99.90;;;;;;4865613;29;20030;-85
2022/11/17 09:04:49;;;;;;;0.98;0.10;;;10.30;99.90;;;;;;4861323;29;20030;-82
2022/11/17 09:07:15;;;;;;;2.45;0.10;;;10.30;99.90;;;;;;4867390;29;20046;-89
2022/11/17 09:09:41;;;;;;;1.55;0.00;;;10.20;99.90;;;;;;4853571;29;20471;-87
2022/11/17 09:12:07;;;;;;;1.02;0.10;;;10.20;99.90;;;;;;4853719;29;20033;-90
2022/11/17 09:14:32;;;;;;;0.93;0.00;;;10.30;99.90;;;;;;4852058;29;20034;-83
2022/11/17 09:16:58;;;;;;;0.85;0.10;;;10.30;99.90;;;;;;4864737;29;20063;-85
2022/11/17 09:19:24;;;;;;;0.55;0.00;;;10.30;99.90;;;;;;4855973;29;20070;-83
2022/11/17 09:21:49;;;;;;;2.22;0.10;;;10.30;99.90;;;;;;4862365;29;20172;-84
2022/11/17 09:24:15;;;;;;;0.55;0.10;;;10.30;99.90;;;;;;4852456;29;20044;-83
2022/11/17 09:26:41;;;;;;;1.90;0.10;;;10.30;99.90;;;;;;4856101;29;20049;-83
2022/11/17 09:29:08;;;;;;;1.08;0.03;;;10.40;99.90;;;;;;4838047;29;20166;-94
2022/11/17 09:31:34;;;;;;;0.73;0.00;;;10.30;99.90;;;;;;4869299;29;20324;-86
2022/11/17 09:34:00;;;;;;;0.65;0.08;;;10.30;99.90;;;;;;4851761;29;20458;-90
2022/11/17 09:36:25;;;;;;;1.52;0.10;;;10.30;99.90;;;;;;4867623;29;20048;-84
2022/11/17 09:38:51;;;;;;;2.05;0.10;;;10.30;99.90;;;;;;4870114;29;20367;-82
2022/11/17 09:41:44;;;;;;;0.30;0.00;;;10.30;99.90;;;;;;4856376;29;20037;-85
2022/11/17 09:44:39;;;;;;;2.83;0.10;;;10.30;99.90;;;;;;4835165;29;20057;-86
2022/11/17 09:47:28;;;;;;;0.70;0.00;;;10.30;99.90;;;;;;4869597;29;20478;-89
2022/11/17 09:50:12;;;;;;;0.35;0.03;;;10.30;99.90;;;;;;4843757;29;20406;-85
2022/11/17 09:52:56;;;;;;;2.03;0.10;;;10.30;99.90;;;;;;4854868;29;20034;-95
2022/11/17 09:55:29;;;;;;;1.20;0.15;;;10.20;99.90;;;;;;4852487;29;20045;-85
2022/11/17 09:58:17;;;;;;;0.60;0.00;;;10.20;99.90;;;;;;4851973;29;20037;-87
2022/11/17 10:00:49;;;;;;;0.52;0.00;;;10.20;99.90;;;;;;4853087;29;20063;-90
2022/11/17 10:03:27;;;;;;;1.00;0.05;;;10.20;99.90;;;;;;4854020;29;20038;-90
2022/11/17 10:05:54;;;;;;;1.25;0.00;;;10.20;99.90;;;;;;4848646;29;20068;-90
2022/11/17 10:08:32;;;;;;;1.08;0.10;;;10.10;99.90;;;;;;4846842;29;20036;-85
2022/11/17 10:10:58;;;;;;;1.17;0.10;;;10.10;99.90;;;;;;4854811;29;20037;-85
2022/11/17 10:13:34;;;;;;;1.17;0.10;;;10.00;99.90;;;;;;4849882;29;20398;-83
2022/11/17 10:16:03;;;;;;;0.45;0.00;;;10.00;99.90;;;;;;4838175;29;20120;-84
2022/11/17 10:18:35;;;;;;;0.95;0.00;;;10.10;99.90;;;;;;4853504;29;20471;-89
2022/11/17 10:21:02;;;;;;;1.73;0.00;;;10.10;99.90;;;;;;4836873;29;20076;-83
2022/11/17 10:23:38;;;;;;;0.22;0.00;;;10.10;99.90;;;;;;4845772;29;20085;-88
2022/11/17 10:26:10;;;;;;;1.50;0.00;;;10.10;99.90;;;;;;4847499;29;20048;-93
2022/11/17 10:28:35;;;;;;;0.75;0.00;;;10.20;99.90;;;;;;4865768;29;20053;-84
2022/11/17 10:31:09;;;;;;;0.70;0.00;;;10.10;99.90;;;;;;4851056;29;20483;-89
2022/11/17 10:33:41;;;;;;;1.85;0.10;;;10.20;99.90;;;;;;4852399;29;20025;-89
2022/11/17 10:36:28;;;;;;;1.15;0.00;;;10.30;99.90;;;;;;4863194;29;20038;-86
2022/11/17 10:38:56;;;;;;;1.15;0.00;;;10.30;99.90;;;;;;4852033;29;20478;-86
2022/11/17 10:41:41;;;;;;;0.88;0.00;;;10.30;99.90;;;;;;4849302;29;20033;-84
2022/11/17 10:44:26;;;;;;;0.52;0.00;;;10.30;99.90;;;;;;4851566;29;20042;-85
2022/11/17 10:47:02;;;;;;;1.05;0.10;;;10.30;99.90;;;;;;4840814;29;20042;-89
2022/11/17 10:49:39;;;;;;;0.38;0.10;;;10.40;99.90;;;;;;4867306;29;20124;-86
2022/11/17 10:52:08;;;;;;;0.85;0.10;;;10.50;99.90;;;;;;4852758;29;20041;-90
2022/11/17 10:54:33;;;;;;;1.50;0.10;;;10.60;99.90;;;;;;4852701;29;20032;-89
2022/11/17 10:57:00;;;;;;;0.77;0.00;;;10.70;99.90;;;;;;4844044;29;20037;-81
2022/11/17 10:59:29;;;;;;;0.40;0.10;;;10.80;99.90;;;;;;4864976;29;20473;-89
2022/11/17 11:01:55;;;;;;;3.58;0.10;;;10.90;99.90;;;;;;4836351;29;20045;-82
2022/11/17 11:04:35;;;;;;;0.40;0.10;;;11.00;99.90;;;;;;4867414;29;20029;-89
2022/11/17 11:07:14;;;;;;;0.43;0.00;;;11.10;99.90;;;;;;4865432;29;20050;-85
2022/11/17 11:09:49;;;;;;;0.97;0.00;;;11.00;99.90;;;;;;4835281;29;20037;-84
2022/11/17 11:12:22;;;;;;;1.65;0.05;;;11.10;99.90;;;;;;4835259;29;20094;-85
2022/11/17 11:14:53;;;;;;;0.93;0.10;;;11.10;99.90;;;;;;4852899;29;20034;-86
2022/11/17 11:17:19;;;;;;;1.65;0.15;;;11.10;99.90;;;;;;4839508;29;20060;-91
2022/11/17 11:19:54;;;;;;;0.30;0.00;;;11.10;99.90;;;;;;4853099;29;20073;-93
2022/11/17 11:22:27;;;;;;;2.15;0.10;;;11.10;99.90;;;;;;4852159;29;20097;-85
2022/11/17 11:25:03;;;;;;;1.75;0.00;;;11.10;99.90;;;;;;4851500;29;20033;-85
2022/11/17 11:27:53;;;;;;;0.95;0.10;;;11.00;99.90;;;;;;4852413;29;20041;-89
2022/11/17 11:30:19;;;;;;;0.65;0.00;;;11.00;99.90;;;;;;4851775;29;20255;-87
2022/11/17 11:33:21;;;;;;;0.63;0.10;;;11.00;99.90;;;;;;4839718;29;20229;-87
2022/11/17 11:36:24;;;;;;;0.82;0.00;;;11.00;99.90;;;;;;4849367;29;20110;-87
2022/11/17 11:38:58;;;;;;;1.65;0.10;;;11.00;99.90;;;;;;4854673;29;20034;-89
2022/11/17 11:41:34;;;;;;;1.08;0.10;;;11.00;99.90;;;;;;4855158;29;20022;-83
2022/11/17 11:44:30;;;;;;;2.45;0.20;;;11.00;99.90;;;;;;4837043;29;20067;-85
2022/11/17 11:47:02;;;;;;;1.70;0.10;;;11.10;99.90;;;;;;4844766;29;20439;-88
2022/11/17 11:49:44;;;;;;;0.60;0.10;;;11.10;99.90;;;;;;4852386;29;20042;-85
2022/11/17 11:52:19;;;;;;;0.95;0.00;;;11.10;99.90;;;;;;4863757;29;20038;-84
2022/11/17 11:54:58;;;;;;;0.30;0.03;;;11.10;99.90;;;;;;4853666;29;20486;-93
2022/11/17 11:57:35;;;;;;;1.23;0.10;;;11.10;99.90;;;;;;4850504;29;20090;-87
2022/11/17 12:00:04;;;;;;;1.92;0.10;;;11.10;99.90;;;;;;4851897;29;20094;-88
2022/11/17 12:02:40;;;;;;;0.65;0.10;;;11.00;99.90;;;;;;4851267;29;20041;-86
2022/11/17 12:05:18;;;;;;;0.77;0.00;;;11.00;99.90;;;;;;4851283;29;20065;-93
2022/11/17 12:07:54;;;;;;;0.30;0.00;;;11.00;99.90;;;;;;4850580;29;20126;-89
2022/11/17 12:10:31;;;;;;;1.40;0.10;;;10.90;99.90;;;;;;4851001;29;20049;-83
2022/11/17 12:12:58;;;;;;;0.68;0.03;;;11.00;99.90;;;;;;4855406;29;20045;-88
2022/11/17 12:15:24;;;;;;;1.17;0.10;;;11.00;99.90;;;;;;4857822;29;20030;-89
2022/11/17 12:17:55;;;;;;;0.40;0.00;;;11.00;99.90;;;;;;4854265;29;20037;-87
2022/11/17 12:20:30;;;;;;;1.98;0.05;;;11.00;99.90;;;;;;4841525;29;20056;-84
2022/11/17 12:23:22;;;;;;;0.45;0.00;;;11.00;99.90;;;;;;4853894;29;20040;-84
2022/11/17 12:25:52;;;;;;;1.42;0.10;;;11.00;99.90;;;;;;4856042;29;20049;-89
2022/11/17 12:28:37;;;;;;;1.50;0.00;;;11.10;99.90;;;;;;4856123;29;20105;-86
2022/11/17 12:31:41;;;;;;;1.80;0.10;;;11.10;99.90;;;;;;4854616;29;20034;-84
2022/11/17 12:34:17;;;;;;;1.00;0.10;;;11.10;99.90;;;;;;4868644;29;20037;-89
2022/11/17 12:37:05;;;;;;;1.65;0.20;;;11.20;99.90;;;;;;4856859;29;20026;-89
2022/11/17 12:39:58;;;;;;;0.25;0.08;;;11.10;99.90;;;;;;4869723;29;20091;-86
2022/11/17 12:42:26;;;;;;;2.33;0.10;;;11.20;99.90;;;;;;4862107;29;20130;-87
2022/11/17 12:45:08;;;;;;;0.50;0.00;;;11.20;99.90;;;;;;4853179;29;20050;-89
2022/11/17 12:47:38;;;;;;;0.90;0.10;;;11.20;99.90;;;;;;4836783;29;20053;-89
2022/11/17 12:50:39;;;;;;;1.95;0.10;;;11.10;99.90;;;;;;4865136;29;20359;-87
2022/11/17 12:53:08;;;;;;;1.08;0.10;;;11.10;99.90;;;;;;4856941;29;20064;-90
2022/11/17 12:55:33;;;;;;;1.60;0.03;;;11.10;99.90;;;;;;4840180;29;20033;-89
2022/11/17 12:58:17;;;;;;;1.55;0.20;;;11.00;99.90;;;;;;4839338;29;20144;-83
2022/11/17 13:01:25;;;;;;;0.88;0.00;;;11.10;99.90;;;;;;4854283;29;20040;-85
2022/11/17 13:04:11;;;;;;;0.82;0.10;;;11.00;99.90;;;;;;4854618;29;20418;-85
2022/11/17 13:06:37;;;;;;;0.30;0.00;;;11.00;99.90;;;;;;4868635;29;20057;-83
2022/11/17 13:09:10;;;;;;;2.05;0.00;;;11.00;99.90;;;;;;4858553;29;20033;-90
2022/11/17 13:11:37;;;;;;;1.10;0.10;;;11.00;99.90;;;;;;4834017;29;20533;-84
2022/11/17 13:14:08;;;;;;;1.23;0.00;;;10.90;99.90;;;;;;4851676;29;20030;-86
2022/11/17 13:16:36;;;;;;;0.57;0.00;;;10.90;99.90;;;;;;4870085;29;20123;-89
2022/11/17 13:19:02;;;;;;;1.35;0.30;;;10.90;99.90;;;;;;4839179;29;20034;-84
2022/11/17 13:21:30;;;;;;;0.85;0.00;;;10.80;99.90;;;;;;4858726;29;20033;-89
2022/11/17 13:23:59;;;;;;;0.47;0.00;;;10.80;99.90;;;;;;4856774;29;20471;-90
2022/11/17 13:26:34;;;;;;;1.37;0.00;;;10.80;99.90;;;;;;4853199;29;20049;-89
2022/11/17 13:29:20;;;;;;;1.70;0.38;;;10.70;99.90;;;;;;4871619;29;20098;-89
2022/11/17 13:31:47;;;;;;;0.80;0.00;;;10.60;99.90;;;;;;4869528;29;20037;-88
2022/11/17 13:34:17;;;;;;;1.50;0.10;;;10.60;99.90;;;;;;4825786;29;20040;-87